createdAt,value
2022-10-31T00:01:42.018Z,13.34
2022-10-31T00:04:12.780Z,13.33
2022-10-31T00:06:41.216Z,13.25
2022-10-31T00:09:11.654Z,13.25
2022-10-31T00:11:40.284Z,13.24
2022-10-31T00:14:08.899Z,13.22
2022-10-31T00:16:37.285Z,13.25
2022-10-31T00:19:07.667Z,13.28
2022-10-31T00:21:36.548Z,13.28
2022-10-31T00:24:06.719Z,13.29
2022-10-31T00:26:35.314Z,13.31
2022-10-31T00:29:03.800Z,13.32
2022-10-31T00:31:32.608Z,13.36
2022-10-31T00:34:03.561Z,13.36
2022-10-31T00:36:31.938Z,13.31
2022-10-31T00:39:03.042Z,13.28
2022-10-31T00:41:31.514Z,13.27
2022-10-31T00:43:59.888Z,13.21
2022-10-31T00:46:28.814Z,13.16
2022-10-31T00:48:57.362Z,13.17
2022-10-31T00:51:26.080Z,13.17
2022-10-31T00:53:54.600Z,13.16
2022-10-31T00:56:23.391Z,13.10
2022-10-31T00:58:52.076Z,13.01
2022-10-31T01:01:22.195Z,13.00
2022-10-31T01:03:51.457Z,12.97
2022-10-31T01:06:20.006Z,13.00
2022-10-31T01:08:54.010Z,12.99
2022-10-31T01:11:23.772Z,12.98
2022-10-31T01:13:54.294Z,12.94
2022-10-31T01:16:27.199Z,12.95
2022-10-31T01:18:56.063Z,12.91
2022-10-31T01:21:26.736Z,12.85
2022-10-31T01:23:56.570Z,12.78
2022-10-31T01:26:27.044Z,12.74
2022-10-31T01:28:57.931Z,12.62
2022-10-31T01:31:28.158Z,12.56
2022-10-31T01:33:59.584Z,12.55
2022-10-31T01:36:30.448Z,12.57
2022-10-31T01:39:01.615Z,12.58
2022-10-31T01:41:32.207Z,12.62
2022-10-31T01:44:02.474Z,12.61
2022-10-31T01:46:37.381Z,12.56
2022-10-31T01:49:12.635Z,12.52
2022-10-31T01:51:48.401Z,12.52
2022-10-31T01:54:21.303Z,12.56
2022-10-31T01:56:52.850Z,12.59
2022-10-31T01:59:28.333Z,12.58
2022-10-31T02:01:57.191Z,12.62
2022-10-31T02:04:26.959Z,12.68
2022-10-31T02:07:00.196Z,12.70
2022-10-31T02:09:31.883Z,12.66
2022-10-31T02:12:01.408Z,12.57
2022-10-31T02:14:32.194Z,12.44
2022-10-31T02:17:00.623Z,12.42
2022-10-31T02:19:41.397Z,12.51
2022-10-31T02:22:16.457Z,12.54
2022-10-31T02:25:06.264Z,12.55
2022-10-31T02:28:16.050Z,12.58
2022-10-31T02:30:59.537Z,12.57
2022-10-31T02:33:36.850Z,12.57
2022-10-31T02:36:12.657Z,12.59
2022-10-31T02:38:52.099Z,12.63
2022-10-31T02:41:38.647Z,12.61
2022-10-31T02:44:22.199Z,12.45
2022-10-31T02:46:55.086Z,12.40
2022-10-31T02:49:29.145Z,12.43
2022-10-31T02:51:58.008Z,12.47
2022-10-31T02:54:29.208Z,12.52
2022-10-31T02:57:04.188Z,12.54
2022-10-31T02:59:36.941Z,12.56
2022-10-31T03:02:26.752Z,12.61
2022-10-31T03:05:22.879Z,12.59
2022-10-31T03:08:00.659Z,12.58
2022-10-31T03:10:36.833Z,12.57
2022-10-31T03:13:12.266Z,12.61
2022-10-31T03:15:46.081Z,12.64
2022-10-31T03:18:19.543Z,12.70
2022-10-31T03:20:55.224Z,12.73
2022-10-31T03:23:25.327Z,12.74
2022-10-31T03:25:55.154Z,12.78
2022-10-31T03:28:34.221Z,12.85
2022-10-31T03:31:07.251Z,12.86
2022-10-31T03:33:43.134Z,12.87
2022-10-31T03:36:15.228Z,12.86
2022-10-31T03:38:47.268Z,12.92
2022-10-31T03:41:24.112Z,12.86
2022-10-31T03:44:02.375Z,12.81
2022-10-31T03:46:31.104Z,12.83
2022-10-31T03:49:00.540Z,12.85
2022-10-31T03:51:39.161Z,12.88
2022-10-31T03:54:14.649Z,12.88
2022-10-31T03:56:52.160Z,12.83
2022-10-31T03:59:25.404Z,12.73
2022-10-31T04:02:01.795Z,12.70
2022-10-31T04:04:31.757Z,12.69
2022-10-31T04:07:02.367Z,12.66
2022-10-31T04:09:34.170Z,12.72
2022-10-31T04:12:08.907Z,12.80
2022-10-31T04:14:56.078Z,12.84
2022-10-31T04:17:31.207Z,12.88
2022-10-31T04:20:03.540Z,12.92
2022-10-31T04:22:33.160Z,12.93
2022-10-31T04:25:03.060Z,12.89
2022-10-31T04:27:31.434Z,12.86
2022-10-31T04:30:00.238Z,12.89
2022-10-31T04:32:28.711Z,12.95
2022-10-31T04:34:57.308Z,12.95
2022-10-31T04:37:26.050Z,12.95
2022-10-31T04:39:54.864Z,12.91
2022-10-31T04:42:55.809Z,12.85
2022-10-31T04:45:24.749Z,12.88
2022-10-31T04:47:53.836Z,12.87
2022-10-31T04:50:22.429Z,12.81
2022-10-31T04:52:51.037Z,12.83
2022-10-31T04:55:22.019Z,12.86
2022-10-31T04:58:09.096Z,12.80
2022-10-31T05:00:37.492Z,12.75
2022-10-31T05:03:07.024Z,12.80
2022-10-31T05:05:35.579Z,12.80
2022-10-31T05:08:06.503Z,12.81
2022-10-31T05:10:35.637Z,12.84
2022-10-31T05:13:06.185Z,12.88
2022-10-31T05:15:53.625Z,12.89
2022-10-31T05:19:01.192Z,12.72
2022-10-31T05:21:35.470Z,12.70
2022-10-31T05:24:08.645Z,12.77
2022-10-31T05:26:37.505Z,12.85
2022-10-31T05:29:06.393Z,12.85
2022-10-31T05:31:34.986Z,12.89
2022-10-31T05:34:04.386Z,12.91
2022-10-31T05:37:07.520Z,12.87
2022-10-31T05:39:35.873Z,12.89
2022-10-31T05:42:07.369Z,12.90
2022-10-31T05:44:36.372Z,12.90
2022-10-31T05:47:20.078Z,12.91
2022-10-31T05:49:57.571Z,12.86
2022-10-31T05:52:41.419Z,12.83
2022-10-31T05:55:33.746Z,12.77
2022-10-31T05:58:10.899Z,12.74
2022-10-31T06:00:39.668Z,12.80
2022-10-31T06:03:11.051Z,12.86
2022-10-31T06:05:56.038Z,12.82
2022-10-31T06:08:27.804Z,12.81
2022-10-31T06:10:57.802Z,12.81
2022-10-31T06:13:57.289Z,12.79
2022-10-31T06:16:29.306Z,12.86
2022-10-31T06:18:59.301Z,12.94
2022-10-31T06:21:28.052Z,13.03
2022-10-31T06:23:56.524Z,13.08
2022-10-31T06:26:44.465Z,13.09
2022-10-31T06:29:13.183Z,13.10
2022-10-31T06:32:00.407Z,13.09
2022-10-31T06:34:33.107Z,13.08
2022-10-31T06:37:01.877Z,13.14
2022-10-31T06:39:31.137Z,13.23
2022-10-31T06:41:59.890Z,13.27
2022-10-31T06:44:29.023Z,13.27
2022-10-31T06:46:57.491Z,13.22
2022-10-31T06:49:44.638Z,13.27
2022-10-31T06:52:16.168Z,13.31
2022-10-31T06:54:44.745Z,13.38
2022-10-31T06:57:13.745Z,13.45
2022-10-31T07:00:12.377Z,13.45
2022-10-31T07:02:54.699Z,13.29
2022-10-31T07:05:26.219Z,13.20
2022-10-31T07:07:56.040Z,13.11
2022-10-31T07:10:26.013Z,13.13
2022-10-31T07:13:02.940Z,13.08
2022-10-31T07:15:36.136Z,13.03
2022-10-31T07:18:06.527Z,13.04
2022-10-31T07:20:36.854Z,13.06
2022-10-31T07:23:06.117Z,13.15
2022-10-31T07:25:35.232Z,13.10
2022-10-31T07:28:18.471Z,12.99
2022-10-31T07:30:52.095Z,12.98
2022-10-31T07:33:22.687Z,13.00
2022-10-31T07:36:26.257Z,12.97
2022-10-31T07:38:56.064Z,13.05
2022-10-31T07:41:25.684Z,13.19
2022-10-31T07:43:58.829Z,13.28
2022-10-31T07:46:32.282Z,13.37
2022-10-31T07:49:25.995Z,13.41
2022-10-31T07:52:15.862Z,13.35
2022-10-31T07:55:16.813Z,13.30
2022-10-31T07:57:59.699Z,13.37
2022-10-31T08:00:30.905Z,13.28
2022-10-31T08:03:01.575Z,13.28
2022-10-31T08:05:49.336Z,13.26
2022-10-31T08:08:32.232Z,13.29
2022-10-31T08:11:04.039Z,13.29
2022-10-31T08:13:32.452Z,13.31
2022-10-31T08:16:04.888Z,13.28
2022-10-31T08:18:38.095Z,13.36
2022-10-31T08:21:07.316Z,13.45
2022-10-31T08:23:35.826Z,13.40
2022-10-31T08:26:06.442Z,13.45
2022-10-31T08:28:34.781Z,13.55
2022-10-31T08:31:05.136Z,13.55
2022-10-31T08:33:42.690Z,13.53
2022-10-31T08:36:31.599Z,13.49
2022-10-31T08:39:12.531Z,13.42
2022-10-31T08:41:40.957Z,13.46
2022-10-31T08:44:13.107Z,13.54
2022-10-31T08:46:42.130Z,13.60
2022-10-31T08:49:10.527Z,13.68
2022-10-31T08:51:39.021Z,13.78
2022-10-31T08:54:09.116Z,13.83
2022-10-31T08:56:37.484Z,13.90
2022-10-31T08:59:12.484Z,13.91
2022-10-31T09:02:16.764Z,13.84
2022-10-31T09:04:45.330Z,13.82
2022-10-31T09:07:21.454Z,13.82
2022-10-31T09:09:50.466Z,13.83
2022-10-31T09:12:22.271Z,13.90
2022-10-31T09:15:22.985Z,13.89
2022-10-31T09:18:09.467Z,13.88
2022-10-31T09:20:50.367Z,13.94
2022-10-31T09:23:20.747Z,13.94
2022-10-31T09:25:52.731Z,13.97
2022-10-31T09:28:45.241Z,13.97
2022-10-31T09:31:16.278Z,14.01
2022-10-31T09:33:54.955Z,13.98
2022-10-31T09:36:55.201Z,14.01
2022-10-31T09:39:24.954Z,14.03
2022-10-31T09:42:09.918Z,14.12
2022-10-31T09:44:52.971Z,14.12
2022-10-31T09:47:41.143Z,14.05
2022-10-31T09:50:37.161Z,13.90
2022-10-31T09:53:27.627Z,13.92
2022-10-31T09:55:57.342Z,13.95
2022-10-31T09:58:29.054Z,13.95
2022-10-31T10:01:01.388Z,13.94
2022-10-31T10:03:36.057Z,13.95
2022-10-31T10:06:16.100Z,13.91
2022-10-31T10:09:04.851Z,13.86
2022-10-31T10:12:16.206Z,13.84
2022-10-31T10:15:00.258Z,13.79
2022-10-31T10:17:45.873Z,13.79
2022-10-31T10:20:36.474Z,13.85
2022-10-31T10:23:32.989Z,13.93
2022-10-31T10:26:11.416Z,14.01
2022-10-31T10:28:43.933Z,14.10
2022-10-31T10:31:16.049Z,14.10
2022-10-31T10:34:09.146Z,14.12
2022-10-31T10:36:42.788Z,14.13
2022-10-31T10:39:16.883Z,13.99
2022-10-31T10:42:09.503Z,14.04
2022-10-31T10:44:59.519Z,13.95
2022-10-31T10:51:04.286Z,13.90
2022-10-31T10:54:00.405Z,13.97
2022-10-31T10:56:41.716Z,14.05
2022-10-31T10:59:14.793Z,14.10
2022-10-31T11:01:44.650Z,14.15
2022-10-31T11:04:29.637Z,14.21
2022-10-31T11:07:03.953Z,14.22
2022-10-31T11:09:33.417Z,14.18
2022-10-31T11:12:09.079Z,14.19
2022-10-31T11:14:46.365Z,14.25
2022-10-31T11:17:26.212Z,14.25
2022-10-31T11:20:24.442Z,14.24
2022-10-31T11:23:03.983Z,14.23
2022-10-31T11:25:32.675Z,14.25
2022-10-31T11:28:03.342Z,14.31
2022-10-31T11:30:43.059Z,14.37
2022-10-31T11:33:19.806Z,14.40
2022-10-31T11:35:52.149Z,14.43
2022-10-31T11:38:27.047Z,14.39
2022-10-31T11:40:59.873Z,14.33
2022-10-31T11:43:30.235Z,14.25
2022-10-31T11:45:58.898Z,14.14
2022-10-31T11:48:27.402Z,14.14
2022-10-31T11:50:58.071Z,14.19
2022-10-31T11:53:29.534Z,14.29
2022-10-31T11:56:11.498Z,14.37
2022-10-31T11:58:40.209Z,14.33
2022-10-31T12:01:26.283Z,14.35
2022-10-31T12:04:08.284Z,14.44
2022-10-31T12:06:38.547Z,14.50
2022-10-31T12:09:19.833Z,14.57
2022-10-31T12:12:02.540Z,14.63
2022-10-31T12:14:38.412Z,14.51
2022-10-31T12:17:16.502Z,14.49
2022-10-31T12:19:55.412Z,14.55
2022-10-31T12:22:33.028Z,14.63
2022-10-31T12:25:21.997Z,14.68
2022-10-31T12:28:16.527Z,14.70
2022-10-31T12:31:00.516Z,14.65
2022-10-31T12:33:42.665Z,14.63
2022-10-31T12:36:30.312Z,14.56
2022-10-31T12:39:24.188Z,14.57
2022-10-31T12:41:58.739Z,14.61
2022-10-31T12:44:49.483Z,14.65
2022-10-31T12:47:34.026Z,14.56
2022-10-31T12:50:18.498Z,14.50
2022-10-31T12:52:58.420Z,14.44
2022-10-31T12:55:41.971Z,14.43
2022-10-31T12:58:15.810Z,14.41
2022-10-31T13:00:50.697Z,14.34
2022-10-31T13:03:29.372Z,14.31
2022-10-31T13:06:04.155Z,14.39
2022-10-31T13:08:38.994Z,14.46
2022-10-31T13:11:11.513Z,14.40
2022-10-31T13:13:45.076Z,14.37
2022-10-31T13:16:17.876Z,14.44
2022-10-31T13:18:52.020Z,14.49
2022-10-31T13:21:25.821Z,14.51
2022-10-31T13:23:59.741Z,14.53
2022-10-31T13:26:41.499Z,14.53
2022-10-31T13:29:19.712Z,14.51
2022-10-31T13:31:48.289Z,14.52
2022-10-31T13:34:27.014Z,14.59
2022-10-31T13:37:06.621Z,14.66
2022-10-31T13:39:51.311Z,14.69
2022-10-31T13:42:25.799Z,14.73
2022-10-31T13:44:54.196Z,14.74
2022-10-31T13:47:25.495Z,14.73
2022-10-31T13:50:06.512Z,14.74
2022-10-31T13:52:44.746Z,14.70
2022-10-31T13:55:37.041Z,14.68
2022-10-31T13:58:20.148Z,14.65
2022-10-31T14:01:00.362Z,14.66
2022-10-31T14:03:57.535Z,14.70
2022-10-31T14:06:17.824Z,14.75
2022-10-31T14:08:52.830Z,14.80
2022-10-31T14:11:31.556Z,14.80
2022-10-31T14:14:03.162Z,14.80
2022-10-31T14:16:32.973Z,14.85
2022-10-31T14:19:05.244Z,14.88
2022-10-31T14:21:40.940Z,14.87
2022-10-31T14:24:17.150Z,14.84
2022-10-31T14:26:56.201Z,14.74
2022-10-31T14:29:27.487Z,14.74
2022-10-31T14:32:12.929Z,14.75
2022-10-31T14:34:43.378Z,14.66
2022-10-31T14:37:49.414Z,14.48
2022-10-31T14:40:34.003Z,14.35
2022-10-31T14:43:22.598Z,14.28
2022-10-31T14:45:58.266Z,14.34
2022-10-31T14:48:39.380Z,14.40
2022-10-31T14:51:16.919Z,14.43
2022-10-31T14:53:50.010Z,14.41
2022-10-31T14:56:32.805Z,14.36
2022-10-31T14:59:03.946Z,14.35
2022-10-31T15:01:37.095Z,14.37
2022-10-31T15:04:22.965Z,14.26
2022-10-31T15:07:12.015Z,14.19
2022-10-31T15:09:43.828Z,14.21
2022-10-31T15:12:27.374Z,14.27
2022-10-31T15:14:56.592Z,14.37
2022-10-31T15:17:30.100Z,14.45
2022-10-31T15:20:01.994Z,14.41
2022-10-31T15:22:32.564Z,14.37
2022-10-31T15:25:01.303Z,14.38
2022-10-31T15:27:33.062Z,14.47
2022-10-31T15:30:01.549Z,14.55
2022-10-31T15:32:30.864Z,14.60
2022-10-31T15:35:00.397Z,14.52
2022-10-31T15:37:29.149Z,14.55
2022-10-31T15:40:13.092Z,14.57
2022-10-31T15:42:49.964Z,14.48
2022-10-31T15:45:36.843Z,14.37
2022-10-31T15:48:21.562Z,14.29
2022-10-31T15:53:54.837Z,14.25
2022-10-31T15:56:26.178Z,14.19
2022-10-31T15:58:57.889Z,14.15
2022-10-31T16:01:31.373Z,14.17
2022-10-31T16:04:17.300Z,14.27
2022-10-31T16:06:58.091Z,14.35
2022-10-31T16:09:39.459Z,14.40
2022-10-31T16:12:32.310Z,14.45
2022-10-31T16:16:33.521Z,14.52
2022-10-31T16:19:26.709Z,14.46
2022-10-31T16:22:06.502Z,14.50
2022-10-31T16:24:50.436Z,14.52
2022-10-31T16:27:39.128Z,14.51
2022-10-31T16:30:38.659Z,14.37
2022-10-31T16:33:33.663Z,14.32
2022-10-31T16:36:41.692Z,14.35
2022-10-31T16:39:32.089Z,14.35
2022-10-31T16:42:03.556Z,14.38
2022-10-31T16:44:32.265Z,14.44
2022-10-31T16:47:18.326Z,14.44
2022-10-31T16:49:50.070Z,14.38
2022-10-31T16:52:21.378Z,14.42
2022-10-31T16:54:50.545Z,14.47
2022-10-31T16:57:26.644Z,14.50
2022-10-31T16:59:58.837Z,14.54
2022-10-31T17:02:28.088Z,14.56
2022-10-31T17:04:57.980Z,14.50
2022-10-31T17:07:26.411Z,14.38
2022-10-31T17:09:55.124Z,14.38
2022-10-31T17:12:27.477Z,14.28
2022-10-31T17:14:56.420Z,14.21
2022-10-31T17:17:24.910Z,14.22
2022-10-31T17:19:53.806Z,14.24
2022-10-31T17:22:22.170Z,14.25
2022-10-31T17:24:51.483Z,14.30
2022-10-31T17:27:20.186Z,14.33
2022-10-31T17:29:48.759Z,14.34
2022-10-31T17:32:18.780Z,14.33
2022-10-31T17:34:47.836Z,14.36
2022-10-31T17:37:16.627Z,14.44
2022-10-31T17:39:52.570Z,14.45
2022-10-31T17:42:22.227Z,14.40
2022-10-31T17:44:50.590Z,14.39
2022-10-31T17:47:20.428Z,14.33
2022-10-31T17:49:52.630Z,14.31
2022-10-31T17:52:23.724Z,14.31
2022-10-31T17:54:52.257Z,14.34
2022-10-31T17:57:20.841Z,14.34
2022-10-31T17:59:50.266Z,14.40
2022-10-31T18:02:19.090Z,14.47
2022-10-31T18:04:48.394Z,14.52
2022-10-31T18:07:18.831Z,14.54
2022-10-31T18:09:47.830Z,14.54
2022-10-31T18:12:18.276Z,14.51
2022-10-31T18:14:48.611Z,14.52
2022-10-31T18:17:36.963Z,14.54
2022-10-31T18:20:10.105Z,14.52
2022-10-31T18:22:39.668Z,14.42
2022-10-31T18:25:09.497Z,14.25
2022-10-31T18:27:38.156Z,14.11
2022-10-31T18:30:10.299Z,14.10
2022-10-31T18:32:40.297Z,14.20
2022-10-31T18:35:11.450Z,14.28
2022-10-31T18:38:03.470Z,14.37
2022-10-31T18:40:32.321Z,14.42
2022-10-31T18:43:00.790Z,14.45
2022-10-31T18:45:41.646Z,14.48
2022-10-31T18:48:15.806Z,14.52
2022-10-31T18:50:44.445Z,14.54
2022-10-31T18:53:12.993Z,14.55
2022-10-31T18:55:45.437Z,14.57
2022-10-31T18:58:18.819Z,14.57
2022-10-31T19:00:47.527Z,14.57
2022-10-31T19:03:24.834Z,14.60
2022-10-31T19:05:56.051Z,14.58
2022-10-31T19:08:25.532Z,14.45
2022-10-31T19:10:55.072Z,14.44
2022-10-31T19:13:23.809Z,14.47
2022-10-31T19:15:52.579Z,14.50
2022-10-31T19:18:23.761Z,14.52
2022-10-31T19:20:52.490Z,14.48
2022-10-31T19:23:21.107Z,14.50
2022-10-31T19:25:49.770Z,14.53
2022-10-31T19:31:01.412Z,14.52
2022-10-31T19:33:35.875Z,14.54
2022-10-31T19:36:08.770Z,14.53
2022-10-31T19:38:39.661Z,14.51
2022-10-31T19:41:10.273Z,14.47
2022-10-31T19:43:39.170Z,14.46
2022-10-31T19:46:17.562Z,14.47
2022-10-31T19:48:56.617Z,14.48
2022-10-31T19:51:25.028Z,14.49
2022-10-31T19:53:54.742Z,14.54
2022-10-31T19:56:25.022Z,14.56
2022-10-31T19:58:53.800Z,14.55
2022-10-31T20:01:23.818Z,14.56
2022-10-31T20:03:53.829Z,14.59
2022-10-31T20:06:24.803Z,14.64
2022-10-31T20:08:55.129Z,14.65
2022-10-31T20:11:24.340Z,14.67
2022-10-31T20:13:55.493Z,14.69
2022-10-31T20:16:26.696Z,14.63
2022-10-31T20:18:55.820Z,14.59
2022-10-31T20:21:25.894Z,14.57
2022-10-31T20:23:57.168Z,14.57
2022-10-31T20:26:26.594Z,14.56
2022-10-31T20:28:56.652Z,14.55
2022-10-31T20:31:27.223Z,14.54
2022-10-31T20:33:56.092Z,14.53
2022-10-31T20:36:32.039Z,14.44
2022-10-31T20:39:02.878Z,14.46
2022-10-31T20:41:31.650Z,14.45
2022-10-31T20:44:00.031Z,14.39
2022-10-31T20:46:30.056Z,14.44
2022-10-31T20:48:58.517Z,14.47
2022-10-31T20:51:30.193Z,14.48
2022-10-31T20:54:00.553Z,14.49
2022-10-31T20:56:29.366Z,14.44
2022-10-31T20:58:58.144Z,14.47
2022-10-31T21:01:29.310Z,14.53
2022-10-31T21:03:58.655Z,14.53
2022-10-31T21:06:27.871Z,14.46
2022-10-31T21:08:57.531Z,14.44
2022-10-31T21:11:27.941Z,14.39
2022-10-31T21:13:57.999Z,14.43
2022-10-31T21:16:29.030Z,14.38
2022-10-31T21:18:59.180Z,14.33
2022-10-31T21:21:32.428Z,14.27
2022-10-31T21:24:03.945Z,14.25
2022-10-31T21:26:38.114Z,14.28
2022-10-31T21:29:13.399Z,14.35
2022-10-31T21:31:42.339Z,14.41
2022-10-31T21:34:13.227Z,14.46
2022-10-31T21:36:41.600Z,14.49
2022-10-31T21:39:12.881Z,14.52
2022-10-31T21:41:41.364Z,14.55
2022-10-31T21:44:09.719Z,14.58
2022-10-31T21:46:39.358Z,14.53
2022-10-31T21:49:10.024Z,14.50
2022-10-31T21:51:38.422Z,14.51
2022-10-31T21:54:25.244Z,14.51
2022-10-31T21:56:54.298Z,14.51
2022-10-31T21:59:22.803Z,14.51
2022-10-31T22:01:52.729Z,14.57
2022-10-31T22:04:21.462Z,14.60
2022-10-31T22:06:50.257Z,14.53
2022-10-31T22:09:19.586Z,14.44
2022-10-31T22:11:48.317Z,14.41
2022-10-31T22:14:16.974Z,14.40
2022-10-31T22:16:45.439Z,14.41
2022-10-31T22:19:14.895Z,14.47
2022-10-31T22:21:45.722Z,14.51
2022-10-31T22:24:15.091Z,14.50
2022-10-31T22:26:43.507Z,14.53
2022-10-31T22:29:13.916Z,14.52
2022-10-31T22:31:44.251Z,14.51
2022-10-31T22:34:14.535Z,14.52
2022-10-31T22:36:43.516Z,14.54
2022-10-31T22:39:13.532Z,14.54
2022-10-31T22:41:42.111Z,14.51
2022-10-31T22:44:10.598Z,14.49
2022-10-31T22:46:40.980Z,14.47
2022-10-31T22:49:13.990Z,14.44
2022-10-31T22:51:43.625Z,14.42
2022-10-31T22:54:14.764Z,14.40
2022-10-31T22:56:43.418Z,14.37
2022-10-31T22:59:13.521Z,14.34
2022-10-31T23:01:44.150Z,14.30
2022-10-31T23:04:12.754Z,14.27
2022-10-31T23:06:46.666Z,14.24
2022-10-31T23:09:19.181Z,14.19
2022-10-31T23:11:50.514Z,14.11
2022-10-31T23:14:20.431Z,14.07
2022-10-31T23:16:51.033Z,14.03
2022-10-31T23:19:22.339Z,14.00
2022-10-31T23:21:56.071Z,14.02
2022-10-31T23:24:27.829Z,14.09
2022-10-31T23:27:12.348Z,14.16
2022-10-31T23:29:46.484Z,14.21
2022-10-31T23:32:19.199Z,14.26
2022-10-31T23:34:52.651Z,14.31
2022-10-31T23:37:23.205Z,14.36
2022-10-31T23:39:54.394Z,14.34
2022-10-31T23:42:24.151Z,14.27
2022-10-31T23:44:52.883Z,14.20
2022-10-31T23:47:22.339Z,14.19
2022-10-31T23:49:51.122Z,14.15
2022-10-31T23:52:19.777Z,14.09
2022-10-31T23:54:51.144Z,14.05
2022-10-31T23:57:20.288Z,14.07
2022-10-31T23:59:48.748Z,14.03
